sensor_id;sensor_type;location;lat;lon;timestamp;temperature;humidity
44447;DHT22;30152;52.066;5.358;2023-10-31T07:48:29;10.50;99.90
44447;DHT22;30152;52.066;5.358;2023-10-31T08:15:16;10.90;99.90
44447;DHT22;30152;52.066;5.358;2023-10-31T08:25:02;11.10;99.90
44447;DHT22;30152;52.066;5.358;2023-10-31T08:39:39;11.10;99.90
44447;DHT22;30152;52.066;5.358;2023-10-31T08:42:05;11.20;99.90
44447;DHT22;30152;52.066;5.358;2023-10-31T09:06:26;11.50;99.90
44447;DHT22;30152;52.066;5.358;2023-10-31T09:08:52;11.60;99.90
44447;DHT22;30152;52.066;5.358;2023-10-31T09:11:17;11.50;99.90
44447;DHT22;30152;52.066;5.358;2023-10-31T09:13:42;11.60;99.90
44447;DHT22;30152;52.066;5.358;2023-10-31T09:16:08;11.60;99.90
44447;DHT22;30152;52.066;5.358;2023-10-31T09:18:33;11.70;99.90
44447;DHT22;30152;52.066;5.358;2023-10-31T09:21:00;11.80;99.90
44447;DHT22;30152;52.066;5.358;2023-10-31T09:23:25;11.80;99.90
44447;DHT22;30152;52.066;5.358;2023-10-31T09:25:50;13.40;99.90
44447;DHT22;30152;52.066;5.358;2023-10-31T09:28:16;11.80;99.90
44447;DHT22;30152;52.066;5.358;2023-10-31T09:30:42;11.70;99.90
44447;DHT22;30152;52.066;5.358;2023-10-31T09:33:07;11.90;99.90
44447;DHT22;30152;52.066;5.358;2023-10-31T09:35:33;12.00;99.90
44447;DHT22;30152;52.066;5.358;2023-10-31T09:37:58;12.40;99.90
44447;DHT22;30152;52.066;5.358;2023-10-31T09:40:23;12.20;99.90
44447;DHT22;30152;52.066;5.358;2023-10-31T09:42:49;12.30;99.90
44447;DHT22;30152;52.066;5.358;2023-10-31T09:45:15;12.60;99.90
44447;DHT22;30152;52.066;5.358;2023-10-31T09:47:40;12.60;99.90
44447;DHT22;30152;52.066;5.358;2023-10-31T09:50:08;14.20;99.90
44447;DHT22;30152;52.066;5.358;2023-10-31T09:52:37;12.60;99.90
44447;DHT22;30152;52.066;5.358;2023-10-31T09:55:03;12.50;99.90
44447;DHT22;30152;52.066;5.358;2023-10-31T09:57:30;12.60;99.90
44447;DHT22;30152;52.066;5.358;2023-10-31T09:59:55;12.60;99.90
44447;DHT22;30152;52.066;5.358;2023-10-31T10:02:21;12.70;99.90
44447;DHT22;30152;52.066;5.358;2023-10-31T10:04:49;12.80;99.90
44447;DHT22;30152;52.066;5.358;2023-10-31T10:07:15;12.90;99.90
44447;DHT22;30152;52.066;5.358;2023-10-31T10:12:16;13.10;99.90
44447;DHT22;30152;52.066;5.358;2023-10-31T10:17:18;12.90;99.90
44447;DHT22;30152;52.066;5.358;2023-10-31T10:19:45;13.00;99.90
44447;DHT22;30152;52.066;5.358;2023-10-31T10:22:11;13.00;99.90
44447;DHT22;30152;52.066;5.358;2023-10-31T10:24:38;13.10;99.90
44447;DHT22;30152;52.066;5.358;2023-10-31T10:27:04;12.90;99.90
44447;DHT22;30152;52.066;5.358;2023-10-31T10:29:29;12.90;99.90
44447;DHT22;30152;52.066;5.358;2023-10-31T10:31:55;12.90;99.90
44447;DHT22;30152;52.066;5.358;2023-10-31T10:34:20;12.70;99.90
44447;DHT22;30152;52.066;5.358;2023-10-31T10:36:47;12.80;99.90
44447;DHT22;30152;52.066;5.358;2023-10-31T10:39:20;13.00;99.90
44447;DHT22;30152;52.066;5.358;2023-10-31T10:41:55;13.10;99.90
44447;DHT22;30152;52.066;5.358;2023-10-31T10:44:26;11.00;99.90
44447;DHT22;30152;52.066;5.358;2023-10-31T10:46:54;13.20;99.90
44447;DHT22;30152;52.066;5.358;2023-10-31T10:49:21;13.20;99.90
44447;DHT22;30152;52.066;5.358;2023-10-31T10:51:50;13.30;99.90
44447;DHT22;30152;52.066;5.358;2023-10-31T10:54:18;13.40;99.90
44447;DHT22;30152;52.066;5.358;2023-10-31T10:56:49;13.50;99.90
44447;DHT22;30152;52.066;5.358;2023-10-31T10:59:21;13.70;99.90
44447;DHT22;30152;52.066;5.358;2023-10-31T11:01:47;13.80;99.90
44447;DHT22;30152;52.066;5.358;2023-10-31T11:04:14;13.60;99.90
44447;DHT22;30152;52.066;5.358;2023-10-31T11:06:40;14.60;99.90
44447;DHT22;30152;52.066;5.358;2023-10-31T11:09:07;13.20;99.90
44447;DHT22;30152;52.066;5.358;2023-10-31T11:11:33;14.20;99.90
44447;DHT22;30152;52.066;5.358;2023-10-31T11:14:00;13.10;99.90
44447;DHT22;30152;52.066;5.358;2023-10-31T11:16:29;13.10;99.90
44447;DHT22;30152;52.066;5.358;2023-10-31T11:18:56;13.20;99.90
44447;DHT22;30152;52.066;5.358;2023-10-31T11:21:22;13.50;99.90
44447;DHT22;30152;52.066;5.358;2023-10-31T11:23:56;13.50;99.90
44447;DHT22;30152;52.066;5.358;2023-10-31T11:26:21;13.70;99.90
44447;DHT22;30152;52.066;5.358;2023-10-31T11:28:50;13.60;99.90
44447;DHT22;30152;52.066;5.358;2023-10-31T11:31:16;13.70;99.90
44447;DHT22;30152;52.066;5.358;2023-10-31T11:33:41;13.90;99.90
44447;DHT22;30152;52.066;5.358;2023-10-31T11:36:08;13.70;99.90
44447;DHT22;30152;52.066;5.358;2023-10-31T11:38:36;13.60;99.90
44447;DHT22;30152;52.066;5.358;2023-10-31T11:41:02;13.60;99.90
44447;DHT22;30152;52.066;5.358;2023-10-31T11:46:05;13.60;99.90
44447;DHT22;30152;52.066;5.358;2023-10-31T11:48:48;13.70;99.90
44447;DHT22;30152;52.066;5.358;2023-10-31T11:51:16;13.70;99.90
44447;DHT22;30152;52.066;5.358;2023-10-31T11:53:41;13.70;99.90
44447;DHT22;30152;52.066;5.358;2023-10-31T11:56:09;13.50;99.90
44447;DHT22;30152;52.066;5.358;2023-10-31T11:58:35;13.30;99.90
44447;DHT22;30152;52.066;5.358;2023-10-31T12:01:01;13.10;99.90
44447;DHT22;30152;52.066;5.358;2023-10-31T12:03:27;13.00;99.90
44447;DHT22;30152;52.066;5.358;2023-10-31T12:05:53;12.70;99.90
44447;DHT22;30152;52.066;5.358;2023-10-31T12:08:38;12.50;99.90
44447;DHT22;30152;52.066;5.358;2023-10-31T12:11:11;12.60;99.90
44447;DHT22;30152;52.066;5.358;2023-10-31T12:13:37;12.60;99.90
44447;DHT22;30152;52.066;5.358;2023-10-31T12:16:04;12.50;99.90
44447;DHT22;30152;52.066;5.358;2023-10-31T12:18:30;12.50;99.90
44447;DHT22;30152;52.066;5.358;2023-10-31T12:20:56;12.40;99.90
44447;DHT22;30152;52.066;5.358;2023-10-31T12:23:21;12.50;99.90
44447;DHT22;30152;52.066;5.358;2023-10-31T12:25:50;12.50;99.90
44447;DHT22;30152;52.066;5.358;2023-10-31T12:28:16;12.40;99.90
44447;DHT22;30152;52.066;5.358;2023-10-31T12:30:45;12.30;99.90
44447;DHT22;30152;52.066;5.358;2023-10-31T12:33:15;12.30;99.90
44447;DHT22;30152;52.066;5.358;2023-10-31T12:35:40;12.30;99.90
44447;DHT22;30152;52.066;5.358;2023-10-31T12:38:06;12.30;99.90
44447;DHT22;30152;52.066;5.358;2023-10-31T12:40:32;13.80;99.90
44447;DHT22;30152;52.066;5.358;2023-10-31T12:42:58;12.40;99.90
44447;DHT22;30152;52.066;5.358;2023-10-31T12:45:24;12.50;99.90
44447;DHT22;30152;52.066;5.358;2023-10-31T12:48:09;12.40;99.90
44447;DHT22;30152;52.066;5.358;2023-10-31T12:50:35;12.60;99.90
44447;DHT22;30152;52.066;5.358;2023-10-31T12:53:05;12.60;99.90
44447;DHT22;30152;52.066;5.358;2023-10-31T12:55:37;12.60;99.90
44447;DHT22;30152;52.066;5.358;2023-10-31T12:58:03;12.60;99.90
44447;DHT22;30152;52.066;5.358;2023-10-31T13:00:30;12.50;99.90
44447;DHT22;30152;52.066;5.358;2023-10-31T13:03:03;12.50;99.90
44447;DHT22;30152;52.066;5.358;2023-10-31T13:05:29;12.60;99.90
44447;DHT22;30152;52.066;5.358;2023-10-31T13:07:55;12.50;99.90
44447;DHT22;30152;52.066;5.358;2023-10-31T13:10:25;12.50;99.90
44447;DHT22;30152;52.066;5.358;2023-10-31T13:12:51;12.60;99.90
44447;DHT22;30152;52.066;5.358;2023-10-31T13:15:17;13.20;99.90
44447;DHT22;30152;52.066;5.358;2023-10-31T13:17:49;15.70;99.90
44447;DHT22;30152;52.066;5.358;2023-10-31T13:20:17;12.60;99.90
44447;DHT22;30152;52.066;5.358;2023-10-31T13:22:43;12.70;99.90
44447;DHT22;30152;52.066;5.358;2023-10-31T13:25:09;12.90;99.90
44447;DHT22;30152;52.066;5.358;2023-10-31T13:27:39;12.70;99.90
44447;DHT22;30152;52.066;5.358;2023-10-31T13:30:06;12.80;99.90
44447;DHT22;30152;52.066;5.358;2023-10-31T13:32:31;12.70;99.90
44447;DHT22;30152;52.066;5.358;2023-10-31T13:34:57;12.70;99.90
44447;DHT22;30152;52.066;5.358;2023-10-31T13:37:23;12.60;99.90
44447;DHT22;30152;52.066;5.358;2023-10-31T13:39:48;12.50;99.90
44447;DHT22;30152;52.066;5.358;2023-10-31T13:42:13;12.40;99.90
44447;DHT22;30152;52.066;5.358;2023-10-31T13:44:42;12.40;99.90
44447;DHT22;30152;52.066;5.358;2023-10-31T13:47:08;12.50;99.90
44447;DHT22;30152;52.066;5.358;2023-10-31T13:49:34;12.40;99.90
44447;DHT22;30152;52.066;5.358;2023-10-31T13:52:00;14.10;99.90
44447;DHT22;30152;52.066;5.358;2023-10-31T13:54:25;12.50;99.90
44447;DHT22;30152;52.066;5.358;2023-10-31T13:56:51;12.30;99.90
44447;DHT22;30152;52.066;5.358;2023-10-31T13:59:16;12.30;99.90
44447;DHT22;30152;52.066;5.358;2023-10-31T14:01:43;12.30;99.90
44447;DHT22;30152;52.066;5.358;2023-10-31T14:04:11;12.30;99.90
44447;DHT22;30152;52.066;5.358;2023-10-31T14:06:38;12.30;99.90
44447;DHT22;30152;52.066;5.358;2023-10-31T14:09:04;12.30;99.90
44447;DHT22;30152;52.066;5.358;2023-10-31T14:11:30;12.40;99.90
44447;DHT22;30152;52.066;5.358;2023-10-31T14:13:55;12.40;99.90
44447;DHT22;30152;52.066;5.358;2023-10-31T14:16:24;12.40;99.90
44447;DHT22;30152;52.066;5.358;2023-10-31T14:18:50;12.40;99.90
44447;DHT22;30152;52.066;5.358;2023-10-31T14:21:15;12.30;99.90
44447;DHT22;30152;52.066;5.358;2023-10-31T14:23:41;12.30;99.90
44447;DHT22;30152;52.066;5.358;2023-10-31T14:26:06;12.30;99.90
44447;DHT22;30152;52.066;5.358;2023-10-31T14:28:31;12.30;99.90
44447;DHT22;30152;52.066;5.358;2023-10-31T14:30:57;12.30;99.90
44447;DHT22;30152;52.066;5.358;2023-10-31T14:33:23;13.30;99.90
44447;DHT22;30152;52.066;5.358;2023-10-31T14:35:48;12.40;99.90
44447;DHT22;30152;52.066;5.358;2023-10-31T14:38:14;12.30;99.90
44447;DHT22;30152;52.066;5.358;2023-10-31T14:40:39;12.20;99.90
44447;DHT22;30152;52.066;5.358;2023-10-31T14:43:05;12.00;99.90
44447;DHT22;30152;52.066;5.358;2023-10-31T14:45:30;12.60;99.90
44447;DHT22;30152;52.066;5.358;2023-10-31T14:47:56;12.00;99.90
44447;DHT22;30152;52.066;5.358;2023-10-31T14:50:21;11.90;99.90
44447;DHT22;30152;52.066;5.358;2023-10-31T14:52:47;11.80;99.90
44447;DHT22;30152;52.066;5.358;2023-10-31T14:55:12;11.90;99.90
44447;DHT22;30152;52.066;5.358;2023-10-31T14:57:38;10.00;99.90
44447;DHT22;30152;52.066;5.358;2023-10-31T15:00:04;11.70;99.90
44447;DHT22;30152;52.066;5.358;2023-10-31T15:02:32;11.70;99.90
44447;DHT22;30152;52.066;5.358;2023-10-31T15:04:59;11.70;99.90
44447;DHT22;30152;52.066;5.358;2023-10-31T15:07:25;11.90;99.90
44447;DHT22;30152;52.066;5.358;2023-10-31T15:09:50;11.60;99.90
44447;DHT22;30152;52.066;5.358;2023-10-31T15:12:16;11.60;99.90
44447;DHT22;30152;52.066;5.358;2023-10-31T15:14:41;11.70;99.90
44447;DHT22;30152;52.066;5.358;2023-10-31T15:17:06;11.50;99.90
44447;DHT22;30152;52.066;5.358;2023-10-31T15:19:32;11.50;99.90
44447;DHT22;30152;52.066;5.358;2023-10-31T15:21:58;11.50;99.90
44447;DHT22;30152;52.066;5.358;2023-10-31T15:24:23;11.30;99.90
44447;DHT22;30152;52.066;5.358;2023-10-31T15:26:48;11.30;99.90
44447;DHT22;30152;52.066;5.358;2023-10-31T15:29:14;11.90;99.90
44447;DHT22;30152;52.066;5.358;2023-10-31T15:31:43;11.30;99.90
44447;DHT22;30152;52.066;5.358;2023-10-31T15:34:09;11.20;99.90
44447;DHT22;30152;52.066;5.358;2023-10-31T15:36:35;11.20;99.90
44447;DHT22;30152;52.066;5.358;2023-10-31T15:39:00;11.20;99.90
44447;DHT22;30152;52.066;5.358;2023-10-31T15:41:26;11.20;99.90
44447;DHT22;30152;52.066;5.358;2023-10-31T15:43:51;11.20;99.90
44447;DHT22;30152;52.066;5.358;2023-10-31T15:46:19;11.20;99.90
44447;DHT22;30152;52.066;5.358;2023-10-31T15:48:44;11.20;99.90
44447;DHT22;30152;52.066;5.358;2023-10-31T15:51:10;11.40;99.90
44447;DHT22;30152;52.066;5.358;2023-10-31T15:53:35;11.30;99.90
44447;DHT22;30152;52.066;5.358;2023-10-31T15:56:01;11.20;99.90
44447;DHT22;30152;52.066;5.358;2023-10-31T15:58:33;11.20;99.90
44447;DHT22;30152;52.066;5.358;2023-10-31T16:00:58;11.20;99.90
44447;DHT22;30152;52.066;5.358;2023-10-31T16:03:23;11.10;99.90
44447;DHT22;30152;52.066;5.358;2023-10-31T16:05:49;11.20;99.90
44447;DHT22;30152;52.066;5.358;2023-10-31T16:08:14;11.00;99.90
44447;DHT22;30152;52.066;5.358;2023-10-31T16:10:40;11.10;99.90
44447;DHT22;30152;52.066;5.358;2023-10-31T16:13:05;11.10;99.90
44447;DHT22;30152;52.066;5.358;2023-10-31T16:15:31;11.10;99.90
44447;DHT22;30152;52.066;5.358;2023-10-31T16:17:56;11.10;99.90
44447;DHT22;30152;52.066;5.358;2023-10-31T16:20:22;11.30;99.90
44447;DHT22;30152;52.066;5.358;2023-10-31T16:22:47;11.20;99.90
44447;DHT22;30152;52.066;5.358;2023-10-31T16:25:13;14.20;99.90
44447;DHT22;30152;52.066;5.358;2023-10-31T16:27:38;10.90;99.90
44447;DHT22;30152;52.066;5.358;2023-10-31T16:30:04;10.90;99.90
44447;DHT22;30152;52.066;5.358;2023-10-31T16:32:30;10.90;99.90
44447;DHT22;30152;52.066;5.358;2023-10-31T16:34:56;10.90;99.90
44447;DHT22;30152;52.066;5.358;2023-10-31T16:37:21;12.90;99.90
44447;DHT22;30152;52.066;5.358;2023-10-31T16:39:47;10.90;99.90
44447;DHT22;30152;52.066;5.358;2023-10-31T16:42:12;10.90;99.90
44447;DHT22;30152;52.066;5.358;2023-10-31T16:44:39;10.90;99.90
44447;DHT22;30152;52.066;5.358;2023-10-31T16:47:05;10.90;99.90
44447;DHT22;30152;52.066;5.358;2023-10-31T16:49:30;10.90;99.90
44447;DHT22;30152;52.066;5.358;2023-10-31T16:51:55;10.90;99.90
44447;DHT22;30152;52.066;5.358;2023-10-31T16:54:21;10.90;99.90
44447;DHT22;30152;52.066;5.358;2023-10-31T16:56:46;10.90;99.90
44447;DHT22;30152;52.066;5.358;2023-10-31T16:59:12;10.90;99.90
44447;DHT22;30152;52.066;5.358;2023-10-31T17:01:37;11.00;99.90
44447;DHT22;30152;52.066;5.358;2023-10-31T17:04:04;11.00;99.90
44447;DHT22;30152;52.066;5.358;2023-10-31T17:06:29;10.90;99.90
44447;DHT22;30152;52.066;5.358;2023-10-31T17:08:55;14.10;99.90
44447;DHT22;30152;52.066;5.358;2023-10-31T17:11:22;11.40;99.90
44447;DHT22;30152;52.066;5.358;2023-10-31T17:13:47;11.00;99.90
44447;DHT22;30152;52.066;5.358;2023-10-31T17:16:13;11.00;99.90
44447;DHT22;30152;52.066;5.358;2023-10-31T17:18:38;11.00;99.90
44447;DHT22;30152;52.066;5.358;2023-10-31T17:21:04;11.60;99.90
44447;DHT22;30152;52.066;5.358;2023-10-31T17:23:29;10.90;99.90
44447;DHT22;30152;52.066;5.358;2023-10-31T17:25:56;10.90;99.90
44447;DHT22;30152;52.066;5.358;2023-10-31T17:28:21;10.90;99.90
44447;DHT22;30152;52.066;5.358;2023-10-31T17:30:47;11.00;99.90
44447;DHT22;30152;52.066;5.358;2023-10-31T17:33:12;11.10;99.90
44447;DHT22;30152;52.066;5.358;2023-10-31T17:35:38;10.90;99.90
44447;DHT22;30152;52.066;5.358;2023-10-31T17:38:04;11.70;99.90
44447;DHT22;30152;52.066;5.358;2023-10-31T17:40:30;10.90;99.90
44447;DHT22;30152;52.066;5.358;2023-10-31T17:42:56;10.90;99.90
44447;DHT22;30152;52.066;5.358;2023-10-31T17:45:22;11.80;99.90
44447;DHT22;30152;52.066;5.358;2023-10-31T17:47:50;10.90;99.90
44447;DHT22;30152;52.066;5.358;2023-10-31T17:50:15;11.00;99.90
44447;DHT22;30152;52.066;5.358;2023-10-31T17:52:40;10.90;99.90
44447;DHT22;30152;52.066;5.358;2023-10-31T17:55:06;10.90;99.90
44447;DHT22;30152;52.066;5.358;2023-10-31T17:57:32;10.90;99.90
44447;DHT22;30152;52.066;5.358;2023-10-31T17:59:57;10.90;99.90
44447;DHT22;30152;52.066;5.358;2023-10-31T18:02:23;10.90;99.90
44447;DHT22;30152;52.066;5.358;2023-10-31T18:04:48;10.80;99.90
44447;DHT22;30152;52.066;5.358;2023-10-31T18:07:14;10.80;99.90
44447;DHT22;30152;52.066;5.358;2023-10-31T18:09:39;11.30;99.90
44447;DHT22;30152;52.066;5.358;2023-10-31T18:12:05;10.80;99.90
44447;DHT22;30152;52.066;5.358;2023-10-31T18:14:32;10.80;99.90
44447;DHT22;30152;52.066;5.358;2023-10-31T18:16:57;10.80;99.90
44447;DHT22;30152;52.066;5.358;2023-10-31T18:19:23;11.00;99.90
44447;DHT22;30152;52.066;5.358;2023-10-31T18:21:49;10.80;99.90
44447;DHT22;30152;52.066;5.358;2023-10-31T18:24:15;10.90;99.90
44447;DHT22;30152;52.066;5.358;2023-10-31T18:26:41;10.90;99.90
44447;DHT22;30152;52.066;5.358;2023-10-31T18:29:06;10.90;99.90
44447;DHT22;30152;52.066;5.358;2023-10-31T18:31:32;10.80;99.90
44447;DHT22;30152;52.066;5.358;2023-10-31T18:33:58;10.90;99.90
44447;DHT22;30152;52.066;5.358;2023-10-31T18:36:23;11.60;99.90
44447;DHT22;30152;52.066;5.358;2023-10-31T18:38:53;10.90;99.90
44447;DHT22;30152;52.066;5.358;2023-10-31T18:41:25;10.90;99.90
44447;DHT22;30152;52.066;5.358;2023-10-31T18:43:53;10.80;99.90
44447;DHT22;30152;52.066;5.358;2023-10-31T18:46:19;10.90;99.90
44447;DHT22;30152;52.066;5.358;2023-10-31T18:48:59;10.90;99.90
44447;DHT22;30152;52.066;5.358;2023-10-31T18:51:25;10.80;99.90
44447;DHT22;30152;52.066;5.358;2023-10-31T18:53:51;11.10;99.90
44447;DHT22;30152;52.066;5.358;2023-10-31T18:56:16;10.80;99.90
44447;DHT22;30152;52.066;5.358;2023-10-31T19:01:58;10.80;99.90
44447;DHT22;30152;52.066;5.358;2023-10-31T19:04:24;13.70;99.90
44447;DHT22;30152;52.066;5.358;2023-10-31T19:06:52;10.80;99.90
44447;DHT22;30152;52.066;5.358;2023-10-31T19:09:18;10.70;99.90
44447;DHT22;30152;52.066;5.358;2023-10-31T19:11:45;10.70;99.90
44447;DHT22;30152;52.066;5.358;2023-10-31T19:14:10;10.70;99.90
44447;DHT22;30152;52.066;5.358;2023-10-31T19:16:36;10.70;99.90
44447;DHT22;30152;52.066;5.358;2023-10-31T19:19:02;10.70;99.90
44447;DHT22;30152;52.066;5.358;2023-10-31T19:21:27;10.80;99.90
44447;DHT22;30152;52.066;5.358;2023-10-31T19:23:53;10.80;99.90
44447;DHT22;30152;52.066;5.358;2023-10-31T19:26:18;10.80;99.90
44447;DHT22;30152;52.066;5.358;2023-10-31T19:28:44;11.00;99.90
44447;DHT22;30152;52.066;5.358;2023-10-31T19:31:09;10.80;99.90
44447;DHT22;30152;52.066;5.358;2023-10-31T19:33:34;10.90;99.90
44447;DHT22;30152;52.066;5.358;2023-10-31T19:36:00;10.90;99.90
44447;DHT22;30152;52.066;5.358;2023-10-31T19:38:25;10.80;99.90
44447;DHT22;30152;52.066;5.358;2023-10-31T19:40:51;10.90;99.90
44447;DHT22;30152;52.066;5.358;2023-10-31T19:43:16;10.90;99.90
44447;DHT22;30152;52.066;5.358;2023-10-31T19:45:42;10.90;99.90
44447;DHT22;30152;52.066;5.358;2023-10-31T19:48:10;10.90;99.90
44447;DHT22;30152;52.066;5.358;2023-10-31T19:50:36;10.90;99.90
44447;DHT22;30152;52.066;5.358;2023-10-31T19:53:02;11.20;99.90
44447;DHT22;30152;52.066;5.358;2023-10-31T19:55:28;10.90;99.90
44447;DHT22;30152;52.066;5.358;2023-10-31T19:57:54;11.00;99.90
44447;DHT22;30152;52.066;5.358;2023-10-31T20:00:20;11.00;99.90
44447;DHT22;30152;52.066;5.358;2023-10-31T20:02:50;11.00;99.90
44447;DHT22;30152;52.066;5.358;2023-10-31T20:05:16;11.00;99.90
44447;DHT22;30152;52.066;5.358;2023-10-31T20:07:44;11.90;99.90
44447;DHT22;30152;52.066;5.358;2023-10-31T20:10:09;11.10;99.90
44447;DHT22;30152;52.066;5.358;2023-10-31T20:12:35;11.10;99.90
44447;DHT22;30152;52.066;5.358;2023-10-31T20:17:27;11.60;99.90
44447;DHT22;30152;52.066;5.358;2023-10-31T20:39:23;11.50;99.90
44447;DHT22;30152;52.066;5.358;2023-10-31T20:44:14;11.60;99.90
44447;DHT22;30152;52.066;5.358;2023-10-31T20:46:40;10.90;99.90
44447;DHT22;30152;52.066;5.358;2023-10-31T21:54:49;11.00;99.90
44447;DHT22;30152;52.066;5.358;2023-10-31T22:46:06;11.60;99.90
44447;DHT22;30152;52.066;5.358;2023-10-31T22:48:33;11.50;99.90
